Terminal Aerodrome Forecast
Issued by NWS

Home | Current Version | Previous Version | Text Only | Print | Product List | Glossary Off
Versions: 1 2 3 4 5 6 7 8 9 10 11 12 13 14 15

000
FTUS43 KTOP 270520
TAFFOE
TAF
KFOE 270520Z 2706/2806 17004KT P6SM BKN250
     FM271600 18010KT P6SM SCT060 BKN200
     FM280200 16004KT P6SM SCT250=

USA.gov is the U.S. government's official web portal to all federal, state and local government web resources and services.